Gascoyne, North Dakota
Current Conditions -  °F | °C
As of 1:53 PM on Saturday 25 Oct 2014 (Local Time) from KHEI Reporting Station
Clear Clear  
Wind Chill: 64°   Ceiling: Unl
Heat Index: 64°   Visibility: 10mi
Dew Point: 29°   Wind: 15mph
Humidity: 27%   Direction: 140°SE
Pressure: 30.05"   Gusts: 23mph
Location:  46.1126°N, 103.12°W
Report Text: KHEI 251953Z AUTO 14013G20KT 10SM CLR 18/M02 A3005 RMK AO2 SLP176 T01781017
Loading
Personal Weather Stations






























Interactive Weather Map
Tropical Storm Tracking
New forecast layout! Learn more

10-Day Weather Forecast

Advertisements
Track Severe Weather on mobile